Hovedside
METAR-TAF:

METAR-TAF

Lufthavner :

Ronneby lufthavn

Ronneby, Sverige

breddegrad: 56-16N, lengdegrad: 015-17E, høyde over havet: 58 m

Gjeldene værobservasjon

Denne rapporten ble laget for 11 minutter siden, klokken 09:50 UTC
Vind 6 kt fra Vest
Temperatur 4°C
Luftfuktighet 93%
Trykk 1027 hPa
Sikt 10 km eller mer
ingen skyer under 1500 m og ingen bygeskyer

METAR: ESDF 190950Z 28006KT CAVOK 04/03 Q1027

Tid: 11:01 (10:01 UTC)

Varsel

Denne rapporten ble laget for 1 time og 31 minutter siden, klokken 08:30 UTC
Varsel gyldig fra 19. klokken 09 UTC til 19. klokken 18 UTC
Vind 4 kt fra Vest
Sikt 10 km eller mer
ingen skyer under 1500 m og ingen bygeskyer

TAF: ESDF 190830Z 1909/1918 28004KT CAVOK

Værobservasjoner og værvarsel for over 4000 flyplasser (METAR- og TAF-rapporter).

Tilgjengelige stasjoner er representert av de røde og gule prikkene på kartet.

Hold musepekeren over prikken for å se navnet på stasjonen.

Klikk så for å se værobservasjoner og -varsler.

For å forandre kartet kan du klikke på den grønne knappen med svart kryss for å zoome inn, på den grønne knappen med strek for å zoome ut, eller på de grønne pilene for å se tilstøtende kart.


METAR-TAF: